createdAt,value
2016-08-11T00:00:58.425Z,738.01
2016-08-11T00:01:58.413Z,737.99
2016-08-11T00:02:58.390Z,737.97
2016-08-11T00:03:58.382Z,738.02
2016-08-11T00:04:58.360Z,737.98
2016-08-11T00:05:58.351Z,738.02
2016-08-11T00:06:58.335Z,738.02
2016-08-11T00:07:58.312Z,737.97
2016-08-11T00:08:58.296Z,738.01
2016-08-11T00:09:58.280Z,738.06
2016-08-11T00:10:58.264Z,738.07
2016-08-11T00:11:58.249Z,738.06
2016-08-11T00:12:58.234Z,738.06
2016-08-11T00:13:58.217Z,738.09
2016-08-11T00:14:58.209Z,738.06
2016-08-11T00:15:58.194Z,738.06
2016-08-11T00:16:58.176Z,738.08
2016-08-11T00:17:58.154Z,738.04
2016-08-11T00:18:58.140Z,738.03
2016-08-11T00:19:58.131Z,738.07
2016-08-11T00:20:58.114Z,738.06
2016-08-11T00:21:58.091Z,738.04
2016-08-11T00:22:58.076Z,738.05
2016-08-11T00:23:58.062Z,738.08
2016-08-11T00:24:58.045Z,738.07
2016-08-11T00:25:58.036Z,738.03
2016-08-11T00:26:58.013Z,738.02
2016-08-11T00:27:57.998Z,738.06
2016-08-11T00:28:57.983Z,738.04
2016-08-11T00:29:57.968Z,738.05
2016-08-11T00:30:57.960Z,738.03
2016-08-11T00:31:57.942Z,738.11
2016-08-11T00:32:57.927Z,737.92
2016-08-11T00:33:57.905Z,737.95
2016-08-11T00:34:57.896Z,737.89
2016-08-11T00:35:57.879Z,738.04
2016-08-11T00:36:57.863Z,738
2016-08-11T00:37:57.848Z,738.03
2016-08-11T00:38:57.824Z,738.03
2016-08-11T00:39:57.808Z,738.05
2016-08-11T00:40:57.792Z,738.04
2016-08-11T00:41:57.784Z,737.99
2016-08-11T00:42:57.767Z,738.01
2016-08-11T00:43:57.744Z,738.01
2016-08-11T00:44:57.735Z,738
2016-08-11T00:45:57.719Z,738.05
2016-08-11T00:46:57.696Z,738
2016-08-11T00:47:57.679Z,738.01
2016-08-11T00:48:57.674Z,738.05
2016-08-11T00:49:57.654Z,738.07
2016-08-11T00:50:57.633Z,738.06
2016-08-11T00:51:57.616Z,738.07
2016-08-11T00:52:57.601Z,738.06
2016-08-11T00:53:57.591Z,738.08
2016-08-11T00:54:57.575Z,738.01
2016-08-11T00:55:57.561Z,738.04
2016-08-11T00:56:57.545Z,737.99
2016-08-11T00:57:57.522Z,737.99
2016-08-11T00:58:57.508Z,737.96
2016-08-11T00:59:57.498Z,737.95
2016-08-11T01:00:57.480Z,737.96
2016-08-11T01:01:57.459Z,737.94
2016-08-11T01:02:57.451Z,737.93
2016-08-11T01:03:57.435Z,737.91
2016-08-11T01:04:57.419Z,737.92
2016-08-11T01:05:57.397Z,737.92
2016-08-11T01:06:57.381Z,737.93
2016-08-11T01:07:57.366Z,737.94
2016-08-11T01:08:57.350Z,737.97
2016-08-11T01:09:57.332Z,737.95
2016-08-11T01:10:57.325Z,738
2016-08-11T01:11:57.308Z,737.97
2016-08-11T01:12:57.292Z,737.97
2016-08-11T01:13:57.270Z,738.03
2016-08-11T01:14:57.260Z,738.02
2016-08-11T01:15:57.244Z,738.03
2016-08-11T01:16:57.222Z,738.05
2016-08-11T01:17:57.206Z,738.02
2016-08-11T01:18:57.190Z,737.99
2016-08-11T01:19:57.175Z,737.99
2016-08-11T01:20:57.166Z,737.99
2016-08-11T01:21:57.153Z,737.95
2016-08-11T01:22:57.127Z,737.98
2016-08-11T01:23:57.111Z,737.95
2016-08-11T01:24:57.096Z,737.94
2016-08-11T01:25:57.079Z,737.97
2016-08-11T01:26:57.069Z,737.98
2016-08-11T01:27:57.046Z,737.97
2016-08-11T01:28:57.031Z,737.98
2016-08-11T01:29:57.016Z,737.97
2016-08-11T01:30:57.008Z,737.92
2016-08-11T01:31:56.991Z,738.02
2016-08-11T01:32:56.976Z,737.93
2016-08-11T01:33:56.954Z,737.91
2016-08-11T01:34:56.937Z,737.89
2016-08-11T01:35:56.921Z,738.03
2016-08-11T01:36:56.913Z,737.93
2016-08-11T01:37:56.888Z,737.96
2016-08-11T01:38:56.879Z,737.99
2016-08-11T01:39:56.857Z,737.99
2016-08-11T01:40:56.839Z,737.97
2016-08-11T01:41:56.823Z,738.01
2016-08-11T01:42:56.809Z,738.05
2016-08-11T01:43:56.793Z,738.06
2016-08-11T01:44:56.781Z,738.07
2016-08-11T01:45:56.765Z,738.05
2016-08-11T01:46:56.743Z,738.13
2016-08-11T01:47:56.734Z,738.16
2016-08-11T01:48:56.716Z,738.07
2016-08-11T01:49:56.700Z,738.15
2016-08-11T01:50:56.685Z,738.16
2016-08-11T01:51:56.660Z,738.12
2016-08-11T01:52:56.643Z,738.12
2016-08-11T01:53:56.628Z,738.02
2016-08-11T01:54:56.613Z,738.13
2016-08-11T01:55:56.595Z,738.14
2016-08-11T01:56:56.586Z,738.15
2016-08-11T01:57:56.569Z,738.16
2016-08-11T01:58:56.553Z,738.14
2016-08-11T01:59:56.536Z,738.13
2016-08-11T02:00:56.515Z,738.16
2016-08-11T02:01:56.505Z,738.14
2016-08-11T02:02:56.480Z,738.1
2016-08-11T02:03:56.465Z,738.1
2016-08-11T02:04:56.450Z,738.16
2016-08-11T02:05:56.434Z,738.17
2016-08-11T02:06:56.424Z,738.15
2016-08-11T02:07:56.413Z,738.08
2016-08-11T02:08:56.393Z,738.15
2016-08-11T02:09:56.378Z,738.16
2016-08-11T02:10:56.360Z,738.14
2016-08-11T02:11:56.339Z,738.18
2016-08-11T02:12:56.330Z,738.17
2016-08-11T02:13:56.313Z,738.15
2016-08-11T02:14:56.299Z,738.12
2016-08-11T02:15:56.282Z,738.15
2016-08-11T02:16:56.260Z,738.14
2016-08-11T02:17:56.250Z,738.18
2016-08-11T02:18:56.235Z,738.19
2016-08-11T02:19:56.220Z,738.19
2016-08-11T02:20:56.199Z,738.19
2016-08-11T02:21:56.182Z,738.11
2016-08-11T02:22:56.173Z,738.12
2016-08-11T02:23:56.151Z,738.12
2016-08-11T02:24:56.134Z,738.15
2016-08-11T02:25:56.119Z,738.17
2016-08-11T02:26:56.104Z,738.17
2016-08-11T02:27:56.087Z,738.18
2016-08-11T02:28:56.072Z,738.2
2016-08-11T02:29:56.057Z,738.14
2016-08-11T02:30:56.041Z,738.16
2016-08-11T02:31:56.027Z,738.15
2016-08-11T02:32:56.017Z,738.11
2016-08-11T02:33:55.995Z,738.16
2016-08-11T02:34:55.986Z,738.19
2016-08-11T02:35:55.970Z,738.22
2016-08-11T02:36:55.949Z,738.16
2016-08-11T02:37:55.940Z,738.18
2016-08-11T02:38:55.917Z,738.13
2016-08-11T02:39:55.900Z,738.16
2016-08-11T02:40:55.886Z,738.17
2016-08-11T02:41:55.877Z,738.14
2016-08-11T02:42:55.862Z,738.13
2016-08-11T02:43:55.845Z,738.18
2016-08-11T02:44:55.829Z,738.16
2016-08-11T02:45:55.818Z,738.18
2016-08-11T02:46:55.798Z,738.2
2016-08-11T02:47:55.775Z,738.18
2016-08-11T02:48:55.760Z,738.15
2016-08-11T02:49:55.746Z,738.12
2016-08-11T02:50:55.735Z,738.16
2016-08-11T02:51:55.720Z,738.13
2016-08-11T02:52:55.698Z,738.13
2016-08-11T02:53:55.689Z,738.14
2016-08-11T02:54:55.673Z,738.16
2016-08-11T02:55:55.650Z,738.15
2016-08-11T02:56:55.649Z,738.16
2016-08-11T02:57:55.619Z,738.16
2016-08-11T02:59:55.595Z,738.19
2016-08-11T03:00:55.580Z,738.19
2016-08-11T03:01:55.568Z,738.2
2016-08-11T03:02:55.549Z,738.16
2016-08-11T03:03:55.528Z,738.16
2016-08-11T03:04:55.519Z,738.14
2016-08-11T03:05:55.512Z,738.18
2016-08-11T03:06:55.483Z,738.16
2016-08-11T03:07:55.467Z,738.13
2016-08-11T03:08:55.458Z,738.14
2016-08-11T03:09:55.443Z,738.13
2016-08-11T03:10:55.427Z,738.18
2016-08-11T03:11:55.405Z,738.18
2016-08-11T03:12:55.396Z,738.16
2016-08-11T03:14:55.359Z,738.17
2016-08-11T03:15:55.350Z,738.14
2016-08-11T03:16:55.334Z,738.16
2016-08-11T03:17:55.320Z,738.18
2016-08-11T03:18:55.306Z,738.18
2016-08-11T03:19:55.289Z,738.14
2016-08-11T03:20:55.267Z,738.13
2016-08-11T03:21:55.253Z,738.18
2016-08-11T03:22:55.237Z,738.16
2016-08-11T03:23:55.222Z,738.15
2016-08-11T03:24:55.213Z,738.17
2016-08-11T03:25:55.192Z,738.14
2016-08-11T03:26:55.176Z,738.17
2016-08-11T03:27:55.160Z,738.18
2016-08-11T03:29:55.131Z,738.16
2016-08-11T03:30:55.122Z,738.16
2016-08-11T03:31:55.106Z,738.18
2016-08-11T03:32:55.091Z,738.17
2016-08-11T03:33:55.076Z,738.2
2016-08-11T03:34:55.055Z,738.2
2016-08-11T03:35:55.045Z,738.15
2016-08-11T03:36:55.025Z,738.18
2016-08-11T03:37:55.008Z,738.15
2016-08-11T03:38:54.994Z,738.11
2016-08-11T03:39:54.978Z,738.16
2016-08-11T03:40:54.963Z,738.12
2016-08-11T03:41:54.955Z,738.16
2016-08-11T03:42:54.933Z,738.17
2016-08-11T03:44:54.914Z,738.17
2016-08-11T03:45:54.888Z,738.16
2016-08-11T03:46:54.884Z,738.15
2016-08-11T03:47:54.863Z,738.14
2016-08-11T03:48:54.840Z,738.12
2016-08-11T03:49:54.838Z,738.17
2016-08-11T03:50:54.819Z,738.23
2016-08-11T03:51:54.806Z,738.2
2016-08-11T03:52:54.778Z,738.23
2016-08-11T03:53:54.767Z,738.28
2016-08-11T03:54:54.749Z,738.26
2016-08-11T03:55:54.734Z,738.22
2016-08-11T03:56:54.718Z,738.23
2016-08-11T03:57:54.702Z,738.25
2016-08-11T03:59:54.670Z,738.25
2016-08-11T04:00:54.663Z,738.25
2016-08-11T04:01:54.648Z,738.31
2016-08-11T04:02:54.627Z,738.28
2016-08-11T04:03:54.616Z,738.3
2016-08-11T04:04:54.601Z,738.26
2016-08-11T04:05:54.580Z,738.28
2016-08-11T04:06:54.577Z,738.28
2016-08-11T04:07:54.549Z,738.29
2016-08-11T04:08:54.541Z,738.22
2016-08-11T04:09:54.526Z,738.27
2016-08-11T04:10:54.502Z,738.28
2016-08-11T04:11:54.487Z,738.25
2016-08-11T04:12:54.480Z,738.32
2016-08-11T04:14:54.449Z,738.3
2016-08-11T04:15:54.426Z,738.3
2016-08-11T04:16:54.418Z,738.31
2016-08-11T04:17:54.397Z,738.3
2016-08-11T04:18:54.387Z,738.27
2016-08-11T04:19:54.372Z,738.31
2016-08-11T04:20:54.357Z,738.32
2016-08-11T04:21:54.341Z,738.34
2016-08-11T04:22:54.326Z,738.33
2016-08-11T04:23:54.304Z,738.39
2016-08-11T04:24:54.296Z,738.4
2016-08-11T04:25:54.274Z,738.41
2016-08-11T04:26:54.266Z,738.39
2016-08-11T04:27:54.244Z,738.4
2016-08-11T04:28:54.238Z,738.42
2016-08-11T04:29:54.212Z,738.44
2016-08-11T04:30:54.199Z,738.4
2016-08-11T04:31:54.190Z,738.4
2016-08-11T04:32:54.174Z,738.38
2016-08-11T04:33:54.160Z,738.43
2016-08-11T04:34:54.148Z,738.45
2016-08-11T04:35:54.130Z,738.45
2016-08-11T04:36:54.108Z,738.46
2016-08-11T04:37:54.094Z,738.49
2016-08-11T04:38:54.086Z,738.45
2016-08-11T04:39:54.071Z,738.5
2016-08-11T04:40:54.050Z,738.52
2016-08-11T04:41:54.042Z,738.5
2016-08-11T04:42:54.021Z,738.53
2016-08-11T04:44:53.997Z,738.51
2016-08-11T04:45:53.975Z,738.48
2016-08-11T04:46:53.968Z,738.52
2016-08-11T04:47:53.952Z,738.48
2016-08-11T04:48:53.930Z,738.5
2016-08-11T04:49:53.922Z,738.49
2016-08-11T04:50:53.906Z,738.53
2016-08-11T04:51:53.885Z,738.46
2016-08-11T04:52:53.871Z,738.49
2016-08-11T04:53:53.857Z,738.48
2016-08-11T04:54:53.846Z,738.54
2016-08-11T04:55:53.825Z,738.47
2016-08-11T04:56:53.817Z,738.55
2016-08-11T04:57:53.796Z,738.59
2016-08-11T04:58:53.779Z,738.56
2016-08-11T04:59:53.763Z,738.53
2016-08-11T05:00:53.755Z,738.51
2016-08-11T05:01:53.734Z,738.52
2016-08-11T05:02:53.717Z,738.57
2016-08-11T05:03:53.704Z,738.59
2016-08-11T05:04:53.695Z,738.61
2016-08-11T05:05:53.673Z,738.62
2016-08-11T05:06:53.657Z,738.6
2016-08-11T05:07:53.641Z,738.64
2016-08-11T05:08:53.633Z,738.58
2016-08-11T05:09:53.618Z,738.59
2016-08-11T05:10:53.595Z,738.57
2016-08-11T05:11:53.588Z,738.62
2016-08-11T05:12:53.565Z,738.6
2016-08-11T05:13:53.556Z,738.61
2016-08-11T05:14:53.535Z,738.57
2016-08-11T05:15:53.521Z,738.57
2016-08-11T05:16:53.505Z,738.63
2016-08-11T05:17:53.489Z,738.65
2016-08-11T05:18:53.473Z,738.62
2016-08-11T05:19:53.467Z,738.68
2016-08-11T05:20:53.443Z,738.71
2016-08-11T05:21:53.428Z,738.65
2016-08-11T05:22:53.413Z,738.69
2016-08-11T05:23:53.398Z,738.72
2016-08-11T05:24:53.383Z,738.72
2016-08-11T05:25:53.368Z,738.68
2016-08-11T05:26:53.353Z,738.7
2016-08-11T05:27:53.344Z,738.68
2016-08-11T05:28:53.324Z,738.73
2016-08-11T05:29:53.314Z,738.74
2016-08-11T05:30:53.299Z,738.76
2016-08-11T05:31:53.276Z,738.77
2016-08-11T05:32:53.269Z,738.78
2016-08-11T05:33:53.248Z,738.84
2016-08-11T05:34:53.232Z,738.8
2016-08-11T05:35:53.224Z,738.72
2016-08-11T05:36:53.201Z,738.75
2016-08-11T05:37:53.195Z,738.75
2016-08-11T05:38:53.179Z,738.81
2016-08-11T05:39:53.165Z,738.77
2016-08-11T05:40:53.144Z,738.79
2016-08-11T05:41:53.141Z,738.82
2016-08-11T05:42:53.122Z,738.8
2016-08-11T05:43:53.100Z,738.81
2016-08-11T05:44:53.094Z,738.81
2016-08-11T05:45:53.078Z,738.82
2016-08-11T05:46:53.057Z,738.82
2016-08-11T05:47:53.050Z,738.81
2016-08-11T05:48:53.035Z,738.84
2016-08-11T05:49:53.020Z,738.85
2016-08-11T05:50:52.998Z,738.9
2016-08-11T05:51:52.987Z,738.83
2016-08-11T05:52:52.978Z,738.84
2016-08-11T05:53:52.963Z,738.86
2016-08-11T05:54:52.949Z,738.85
2016-08-11T05:55:52.928Z,738.8
2016-08-11T05:56:52.914Z,738.85
2016-08-11T05:57:52.899Z,738.88
2016-08-11T05:58:52.892Z,738.86
2016-08-11T05:59:52.870Z,738.89
2016-08-11T06:00:52.856Z,738.91
2016-08-11T06:01:52.842Z,738.91
2016-08-11T06:02:52.829Z,738.87
2016-08-11T06:03:52.814Z,738.91
2016-08-11T06:04:52.805Z,738.91
2016-08-11T06:05:52.784Z,738.95
2016-08-11T06:06:52.770Z,738.92
2016-08-11T06:07:52.762Z,738.89
2016-08-11T06:08:52.743Z,738.92
2016-08-11T06:09:52.728Z,738.96
2016-08-11T06:10:52.721Z,738.96
2016-08-11T06:11:52.699Z,738.95
2016-08-11T06:12:52.686Z,739
2016-08-11T06:13:52.673Z,739.02
2016-08-11T06:14:52.659Z,738.99
2016-08-11T06:15:52.652Z,738.95
2016-08-11T06:16:52.638Z,738.96
2016-08-11T06:17:52.616Z,739.01
2016-08-11T06:18:52.602Z,738.98
2016-08-11T06:19:52.587Z,739.01
2016-08-11T06:20:52.581Z,738.99
2016-08-11T06:21:52.564Z,739.04
2016-08-11T06:22:52.545Z,739.03
2016-08-11T06:23:52.530Z,739.03
2016-08-11T06:24:52.523Z,739.01
2016-08-11T06:25:52.508Z,739.02
2016-08-11T06:26:52.493Z,739.05
2016-08-11T06:27:52.473Z,739.02
2016-08-11T06:28:52.464Z,739.05
2016-08-11T06:29:52.443Z,739.04
2016-08-11T06:30:52.427Z,739.13
2016-08-11T06:31:52.420Z,739.14
2016-08-11T06:32:52.410Z,739.08
2016-08-11T06:33:52.391Z,739.13
2016-08-11T06:34:52.370Z,739.06
2016-08-11T06:35:52.361Z,739.08
2016-08-11T06:36:52.339Z,739.1
2016-08-11T06:37:52.326Z,739.17
2016-08-11T06:38:52.311Z,739.18
2016-08-11T06:39:52.297Z,739.22
2016-08-11T06:40:52.281Z,739.14
2016-08-11T06:41:52.275Z,739.22
2016-08-11T06:42:52.255Z,739.2
2016-08-11T06:43:52.246Z,739.17
2016-08-11T06:44:52.230Z,739.15
2016-08-11T06:45:52.216Z,739.22
2016-08-11T06:46:52.202Z,739.21
2016-08-11T06:47:52.181Z,739.2
2016-08-11T06:48:52.166Z,739.16
2016-08-11T06:49:52.158Z,739.15
2016-08-11T06:50:52.144Z,739.26
2016-08-11T06:51:52.122Z,739.19
2016-08-11T06:52:52.108Z,739.2
2016-08-11T06:53:52.095Z,739.23
2016-08-11T06:54:52.086Z,739.21
2016-08-11T06:55:52.069Z,739.24
2016-08-11T06:56:52.049Z,739.24
2016-08-11T06:57:52.039Z,739.28
2016-08-11T06:58:52.017Z,739.23
2016-08-11T06:59:52.009Z,739.25
2016-08-11T07:00:51.987Z,739.27
2016-08-11T07:01:51.974Z,739.27
2016-08-11T07:02:51.956Z,739.26
2016-08-11T07:03:54.094Z,739.23
2016-08-11T07:04:51.927Z,739.21
2016-08-11T07:05:51.921Z,739.22
2016-08-11T07:06:51.905Z,739.29
2016-08-11T07:07:51.885Z,739.26
2016-08-11T07:08:51.870Z,739.29
2016-08-11T07:09:51.861Z,739.25
2016-08-11T07:10:51.846Z,739.23
2016-08-11T07:11:51.826Z,739.25
2016-08-11T07:12:51.811Z,739.27
2016-08-11T07:13:51.796Z,739.27
2016-08-11T07:14:51.788Z,739.29
2016-08-11T07:15:51.766Z,739.31
2016-08-11T07:16:51.751Z,739.23
2016-08-11T07:17:51.735Z,739.3
2016-08-11T07:18:51.727Z,739.3
2016-08-11T07:19:51.705Z,739.23
2016-08-11T07:20:51.690Z,739.29
2016-08-11T07:21:51.674Z,739.32
2016-08-11T07:22:51.665Z,739.25
2016-08-11T07:23:51.650Z,739.3
2016-08-11T07:24:51.626Z,739.24
2016-08-11T07:25:51.617Z,739.27
2016-08-11T07:26:51.602Z,739.26
2016-08-11T07:27:51.579Z,739.27
2016-08-11T07:28:51.563Z,739.28
2016-08-11T07:29:51.554Z,739.29
2016-08-11T07:30:51.538Z,739.28
2016-08-11T07:31:51.516Z,739.19
2016-08-11T07:32:51.512Z,739.23
2016-08-11T07:33:51.486Z,739.29
2016-08-11T07:34:51.476Z,739.36
2016-08-11T07:35:51.460Z,739.29
2016-08-11T07:36:51.438Z,739.32
2016-08-11T07:37:51.429Z,739.35
2016-08-11T07:38:51.407Z,739.33
2016-08-11T07:39:51.398Z,739.39
2016-08-11T07:40:51.382Z,739.37
2016-08-11T07:41:51.365Z,739.36
2016-08-11T07:42:51.342Z,739.39
2016-08-11T07:43:51.332Z,739.38
2016-08-11T07:44:51.311Z,739.37
2016-08-11T07:45:51.303Z,739.39
2016-08-11T07:46:51.286Z,739.41
2016-08-11T07:47:51.277Z,739.43
2016-08-11T07:48:51.249Z,739.36
2016-08-11T07:49:51.232Z,739.38
2016-08-11T07:50:51.225Z,739.38
2016-08-11T07:51:51.271Z,739.43
2016-08-11T07:52:51.187Z,739.33
2016-08-11T07:53:51.170Z,739.39
2016-08-11T07:54:51.162Z,739.37
2016-08-11T07:55:51.140Z,739.39
2016-08-11T07:56:51.126Z,739.41
2016-08-11T07:57:51.108Z,739.39
2016-08-11T07:58:51.101Z,739.44
2016-08-11T07:59:51.085Z,739.42
2016-08-11T08:00:51.069Z,739.45
2016-08-11T08:01:51.053Z,739.52
2016-08-11T08:02:51.032Z,739.53
2016-08-11T08:03:51.024Z,739.57
2016-08-11T08:04:51.006Z,739.57
2016-08-11T08:05:50.992Z,739.59
2016-08-11T08:06:50.976Z,739.62
2016-08-11T08:07:50.962Z,739.67
2016-08-11T08:08:50.943Z,739.67
2016-08-11T08:09:50.935Z,739.73
2016-08-11T08:10:50.913Z,739.7
2016-08-11T08:11:50.892Z,739.66
2016-08-11T08:12:50.882Z,739.71
2016-08-11T08:13:50.862Z,739.72
2016-08-11T08:14:50.848Z,739.75
2016-08-11T08:15:50.836Z,739.73
2016-08-11T08:16:50.819Z,739.71
2016-08-11T08:17:50.802Z,739.67
2016-08-11T08:18:50.795Z,739.72
2016-08-11T08:19:50.770Z,739.72
2016-08-11T08:20:50.762Z,739.74
2016-08-11T08:21:50.748Z,739.71
2016-08-11T08:22:50.724Z,739.76
2016-08-11T08:23:50.717Z,739.77
2016-08-11T08:24:50.716Z,739.82
2016-08-11T08:25:50.689Z,739.81
2016-08-11T08:26:50.668Z,739.82
2016-08-11T08:27:50.652Z,739.77
2016-08-11T08:28:50.638Z,739.77
2016-08-11T08:29:50.631Z,739.7
2016-08-11T08:30:50.778Z,739.78
2016-08-11T08:31:50.601Z,739.79
2016-08-11T08:32:50.588Z,739.84
2016-08-11T08:33:50.572Z,739.83
2016-08-11T08:34:50.558Z,739.81
2016-08-11T08:35:50.539Z,739.82
2016-08-11T08:36:50.526Z,739.82
2016-08-11T08:37:50.513Z,739.91
2016-08-11T08:38:50.497Z,739.83
2016-08-11T08:39:50.490Z,739.83
2016-08-11T08:40:50.471Z,739.81
2016-08-11T08:41:50.462Z,739.85
2016-08-11T08:42:50.442Z,739.85
2016-08-11T08:43:50.427Z,739.85
2016-08-11T08:44:50.421Z,739.95
2016-08-11T08:45:50.400Z,739.96
2016-08-11T08:46:50.393Z,739.94
2016-08-11T08:47:50.372Z,739.98
2016-08-11T08:48:50.363Z,740
2016-08-11T08:49:50.343Z,739.95
2016-08-11T08:50:50.336Z,739.97
2016-08-11T08:51:50.314Z,739.96
2016-08-11T08:52:50.306Z,740.06
2016-08-11T08:53:50.291Z,739.97
2016-08-11T08:54:50.283Z,739.96
2016-08-11T08:55:50.255Z,740.05
2016-08-11T08:56:50.247Z,740.01
2016-08-11T08:57:50.225Z,739.95
2016-08-11T08:58:50.218Z,739.98
2016-08-11T08:59:50.194Z,740.03
2016-08-11T09:00:50.187Z,740.14
2016-08-11T09:01:50.172Z,740.13
2016-08-11T09:02:50.151Z,740
2016-08-11T09:03:50.134Z,739.92
2016-08-11T09:04:50.121Z,739.94
2016-08-11T09:05:50.105Z,739.94
2016-08-11T09:06:50.091Z,739.93
2016-08-11T09:07:50.075Z,739.93
2016-08-11T09:08:50.068Z,739.91
2016-08-11T09:09:50.047Z,739.85
2016-08-11T09:10:50.031Z,739.83
2016-08-11T09:11:50.016Z,739.93
2016-08-11T09:12:50.010Z,739.93
2016-08-11T09:13:49.989Z,739.83
2016-08-11T09:14:49.972Z,739.97
2016-08-11T09:15:49.958Z,739.96
2016-08-11T09:16:49.949Z,740.01
2016-08-11T09:17:49.925Z,739.95
2016-08-11T09:18:49.918Z,739.91
2016-08-11T09:19:49.897Z,739.9
2016-08-11T09:20:49.887Z,739.94
2016-08-11T09:21:49.866Z,740.01
2016-08-11T09:22:49.856Z,740
2016-08-11T09:23:49.842Z,739.98
2016-08-11T09:24:49.819Z,740.08
2016-08-11T09:25:49.804Z,740.12
2016-08-11T09:26:49.790Z,740.17
2016-08-11T09:27:49.781Z,740.31
2016-08-11T09:28:49.759Z,740.28
2016-08-11T09:29:49.743Z,740.33
2016-08-11T09:30:49.733Z,740.29
2016-08-11T09:31:49.711Z,740.26
2016-08-11T09:32:49.697Z,740.27
2016-08-11T09:33:49.687Z,740.48
2016-08-11T09:34:49.673Z,740.35
2016-08-11T09:35:49.649Z,740.36
2016-08-11T09:36:49.636Z,740.24
2016-08-11T09:37:49.621Z,740.25
2016-08-11T09:38:49.614Z,740.26
2016-08-11T09:39:49.598Z,740.27
2016-08-11T09:40:49.578Z,740.25
2016-08-11T09:41:49.570Z,740.3
2016-08-11T09:42:49.551Z,740.27
2016-08-11T09:43:49.535Z,740.41
2016-08-11T09:44:49.521Z,740.6
2016-08-11T09:45:49.513Z,740.29
2016-08-11T09:46:49.499Z,740.18
2016-08-11T09:47:49.478Z,740.25
2016-08-11T09:48:49.465Z,740.32
2016-08-11T09:49:49.450Z,740.34
2016-08-11T09:50:49.436Z,740.38
2016-08-11T09:51:49.421Z,740.31
2016-08-11T09:52:49.407Z,740.59
2016-08-11T09:53:49.394Z,740.43
2016-08-11T09:54:49.379Z,740.62
2016-08-11T09:55:49.366Z,740.52
2016-08-11T09:56:49.352Z,740.4
2016-08-11T09:57:49.345Z,740.61
2016-08-11T09:58:49.331Z,740.5
2016-08-11T09:59:49.312Z,740.46
2016-08-11T10:00:49.305Z,740.49
2016-08-11T10:01:49.286Z,740.52
2016-08-11T10:02:49.273Z,740.58
2016-08-11T10:03:49.258Z,740.6
2016-08-11T10:04:49.254Z,740.61
2016-08-11T10:05:49.240Z,740.66
2016-08-11T10:06:49.219Z,740.54
2016-08-11T10:07:49.209Z,740.63
2016-08-11T10:08:49.202Z,740.55
2016-08-11T10:09:49.184Z,740.41
2016-08-11T10:10:49.177Z,740.65
2016-08-11T10:11:49.157Z,740.46
2016-08-11T10:12:49.151Z,740.4
2016-08-11T10:13:49.139Z,740.35
2016-08-11T10:14:49.118Z,740.27
2016-08-11T10:15:49.107Z,740.38
2016-08-11T10:16:49.099Z,740.4
2016-08-11T10:17:49.085Z,740.34
2016-08-11T10:18:49.067Z,740.26
2016-08-11T10:19:49.051Z,740.29
2016-08-11T10:20:49.039Z,740.32
2016-08-11T10:21:49.032Z,740.41
2016-08-11T10:22:49.018Z,740.45
2016-08-11T10:23:48.998Z,740.38
2016-08-11T10:24:48.990Z,740.3
2016-08-11T10:25:48.977Z,740.24
2016-08-11T10:26:48.955Z,740.25
2016-08-11T10:27:48.944Z,740.29
2016-08-11T10:28:48.928Z,740.26
2016-08-11T10:29:48.925Z,740.35
2016-08-11T10:30:48.906Z,740.34
2016-08-11T10:31:48.893Z,740.47
2016-08-11T10:32:48.879Z,740.47
2016-08-11T10:33:48.859Z,740.48
2016-08-11T10:34:48.850Z,740.44
2016-08-11T10:35:48.837Z,740.51
2016-08-11T10:36:48.817Z,740.52
2016-08-11T10:37:48.808Z,740.62
2016-08-11T10:38:48.787Z,740.51
2016-08-11T10:39:48.771Z,740.73
2016-08-11T10:40:48.765Z,740.68
2016-08-11T10:41:48.744Z,740.69
2016-08-11T10:42:48.729Z,740.54
2016-08-11T10:43:48.717Z,740.78
2016-08-11T10:44:48.710Z,740.58
2016-08-11T10:45:48.688Z,740.5
2016-08-11T10:46:48.676Z,740.51
2016-08-11T10:47:48.668Z,740.86
2016-08-11T10:48:48.647Z,740.8
2016-08-11T10:49:48.634Z,740.87
2016-08-11T10:50:48.627Z,740.72
2016-08-11T10:51:48.612Z,740.59
2016-08-11T10:52:48.593Z,740.64
2016-08-11T10:53:48.579Z,740.7
2016-08-11T10:54:48.567Z,740.65
2016-08-11T10:55:48.559Z,740.68
2016-08-11T10:56:48.538Z,740.75
2016-08-11T10:57:48.533Z,740.92
2016-08-11T10:58:48.514Z,740.84
2016-08-11T11:00:48.494Z,740.57
2016-08-11T11:01:48.480Z,740.58
2016-08-11T11:02:48.460Z,740.56
2016-08-11T11:03:48.447Z,740.63
2016-08-11T11:04:48.435Z,740.41
2016-08-11T11:05:48.421Z,740.35
2016-08-11T11:06:48.415Z,740.34
2016-08-11T11:07:48.401Z,740.38
2016-08-11T11:08:48.383Z,740.33
2016-08-11T11:09:48.375Z,740.43
2016-08-11T11:10:48.354Z,740.45
2016-08-11T11:11:48.342Z,740.51
2016-08-11T11:12:48.328Z,740.88
2016-08-11T11:13:48.314Z,740.57
2016-08-11T11:15:48.294Z,740.77
2016-08-11T11:16:48.273Z,740.52
2016-08-11T11:17:48.268Z,740.54
2016-08-11T11:18:48.254Z,740.77
2016-08-11T11:19:48.241Z,740.6
2016-08-11T11:20:48.227Z,740.81
2016-08-11T11:21:48.215Z,740.66
2016-08-11T11:22:48.204Z,740.55
2016-08-11T11:23:48.191Z,740.64
2016-08-11T11:24:48.179Z,740.63
2016-08-11T11:25:48.159Z,740.56
2016-08-11T11:26:48.147Z,740.41
2016-08-11T11:27:48.142Z,740.47
2016-08-11T11:28:48.129Z,740.33
2016-08-11T11:29:48.116Z,740.33
2016-08-11T11:30:48.103Z,740.36
2016-08-11T11:31:48.083Z,740.33
2016-08-11T11:32:48.069Z,740.74
2016-08-11T11:33:48.064Z,740.77
2016-08-11T11:34:48.050Z,740.79
2016-08-11T11:35:48.032Z,740.83
2016-08-11T11:36:48.023Z,740.9
2016-08-11T11:37:48.003Z,740.76
2016-08-11T11:38:47.996Z,740.57
2016-08-11T11:39:47.977Z,740.71
2016-08-11T11:40:47.971Z,740.73
2016-08-11T11:41:47.957Z,740.78
2016-08-11T11:42:47.946Z,740.88
2016-08-11T11:43:47.925Z,740.91
2016-08-11T11:44:47.913Z,740.88
2016-08-11T11:45:47.900Z,740.8
2016-08-11T11:46:47.887Z,740.88
2016-08-11T11:47:47.881Z,740.88
2016-08-11T11:48:47.863Z,740.83
2016-08-11T11:49:47.849Z,740.88
2016-08-11T11:50:47.844Z,740.89
2016-08-11T11:51:47.830Z,740.6
2016-08-11T11:52:47.810Z,740.68
2016-08-11T11:53:47.804Z,740.63
2016-08-11T11:54:47.791Z,740.68
2016-08-11T11:55:47.776Z,740.63
2016-08-11T11:56:47.760Z,740.55
2016-08-11T11:57:47.756Z,740.59
2016-08-11T11:58:47.734Z,740.64
2016-08-11T11:59:47.721Z,740.61
2016-08-11T12:00:47.719Z,740.61
2016-08-11T12:01:47.703Z,740.58
2016-08-11T12:02:47.682Z,740.55
2016-08-11T12:03:47.671Z,740.55
2016-08-11T12:04:47.809Z,740.5
2016-08-11T12:05:47.645Z,740.55
2016-08-11T12:06:47.641Z,740.58
2016-08-11T12:07:47.621Z,740.56
2016-08-11T12:08:47.616Z,740.49
2016-08-11T12:09:47.593Z,740.41
2016-08-11T12:10:47.588Z,740.39
2016-08-11T12:11:47.575Z,740.39
2016-08-11T12:12:47.556Z,740.5
2016-08-11T12:13:47.549Z,740.52
2016-08-11T12:14:47.542Z,740.55
2016-08-11T12:15:47.515Z,740.54
2016-08-11T12:16:47.499Z,740.57
2016-08-11T12:17:47.492Z,740.74
2016-08-11T12:18:47.471Z,740.65
2016-08-11T12:19:47.458Z,740.86
2016-08-11T12:20:47.450Z,740.64
2016-08-11T12:21:47.436Z,740.94
2016-08-11T12:22:47.423Z,740.85
2016-08-11T12:23:47.404Z,740.87
2016-08-11T12:24:47.389Z,740.87
2016-08-11T12:25:47.382Z,740.82
2016-08-11T12:26:47.372Z,740.9
2016-08-11T12:27:47.360Z,740.65
2016-08-11T12:28:47.336Z,740.83
2016-08-11T12:29:47.326Z,740.9
2016-08-11T12:30:47.316Z,741
2016-08-11T12:31:47.303Z,740.72
2016-08-11T12:32:47.288Z,740.64
2016-08-11T12:33:47.270Z,740.6
2016-08-11T12:34:47.262Z,740.66
2016-08-11T12:35:47.243Z,740.64
2016-08-11T12:36:47.230Z,740.61
2016-08-11T12:37:47.224Z,740.59
2016-08-11T12:38:47.204Z,740.58
2016-08-11T12:39:47.189Z,740.44
2016-08-11T12:40:47.176Z,740.43